createdAt,value
2024-02-02T00:01:07.267Z,91945.63
2024-02-02T00:03:34.117Z,91942.72
2024-02-02T00:06:00.966Z,91938.69
2024-02-02T00:08:27.878Z,91944.75
2024-02-02T00:10:57.000Z,91947.69
2024-02-02T00:13:23.754Z,91954.56
2024-02-02T00:15:50.406Z,91958.59
2024-02-02T00:18:17.626Z,91951.75
2024-02-02T00:20:44.406Z,91955.84
2024-02-02T00:23:11.131Z,91955.34
2024-02-02T00:25:37.873Z,91956.78
2024-02-02T00:28:04.849Z,91959.13
2024-02-02T00:30:37.099Z,91965.44
2024-02-02T00:33:04.405Z,91963.59
2024-02-02T00:35:31.295Z,91968.75
2024-02-02T00:37:58.007Z,91965.53
2024-02-02T00:40:25.495Z,91963.09
2024-02-02T00:42:52.281Z,91955.63
2024-02-02T00:45:19.246Z,91962.28
2024-02-02T00:47:46.054Z,91959.44
2024-02-02T00:50:12.881Z,91953.31
2024-02-02T00:52:39.755Z,91963.16
2024-02-02T00:55:06.659Z,91954.44
2024-02-02T00:57:33.462Z,91944.25
2024-02-02T01:00:00.296Z,91948.16
2024-02-02T01:02:28.240Z,91948.22
2024-02-02T01:04:54.944Z,91939.16
2024-02-02T01:07:21.638Z,91948.91
2024-02-02T01:09:48.357Z,91946.81
2024-02-02T01:12:15.269Z,91938.28
2024-02-02T01:14:42.174Z,91929.66
2024-02-02T01:17:09.259Z,91936.25
2024-02-02T01:19:38.866Z,91929.69
2024-02-02T01:22:05.824Z,91924.16
2024-02-02T01:24:32.811Z,91925.81
2024-02-02T01:26:59.716Z,91923.78
2024-02-02T01:29:26.817Z,91919.66
2024-02-02T01:31:53.602Z,91912.50
2024-02-02T01:34:20.759Z,91907.47
2024-02-02T01:36:47.643Z,91917.81
2024-02-02T01:39:14.535Z,91915.84
2024-02-02T01:41:41.432Z,91920.66
2024-02-02T01:44:08.137Z,91922.91
2024-02-02T01:46:35.314Z,91910.72
2024-02-02T01:49:02.610Z,91916.56
2024-02-02T01:51:29.580Z,91908.72
2024-02-02T01:53:56.307Z,91909.06
2024-02-02T01:56:23.002Z,91903.69
2024-02-02T01:58:49.865Z,91905.31
2024-02-02T02:01:17.005Z,91914.63
2024-02-02T02:03:45.154Z,91903.53
2024-02-02T02:06:12.045Z,91903.34
2024-02-02T02:08:38.822Z,91906.53
2024-02-02T02:11:07.608Z,91898.59
2024-02-02T02:13:34.933Z,91903.66
2024-02-02T02:16:01.644Z,91895.16
2024-02-02T02:18:28.712Z,91894.78
2024-02-02T02:20:56.855Z,91886.22
2024-02-02T02:23:23.606Z,91890.84
2024-02-02T02:25:50.410Z,91898.28
2024-02-02T02:28:17.255Z,91905.56
2024-02-02T02:30:47.527Z,91902.53
2024-02-02T02:33:14.504Z,91898.47
2024-02-02T02:35:41.579Z,91891.72
2024-02-02T02:38:08.395Z,91893.19
2024-02-02T02:40:35.104Z,91885.47
2024-02-02T02:43:01.864Z,91880.47
2024-02-02T02:45:28.815Z,91887.97
2024-02-02T02:47:56.077Z,91880.75
2024-02-02T02:50:22.961Z,91882.19
2024-02-02T02:52:49.730Z,91883.00
2024-02-02T02:55:16.406Z,91895.81
2024-02-02T02:57:43.128Z,91900.66
2024-02-02T03:00:11.068Z,91905.56
2024-02-02T03:02:38.095Z,91895.63
2024-02-02T03:05:05.224Z,91907.72
2024-02-02T03:07:31.995Z,91902.72
2024-02-02T03:09:58.786Z,91905.38
2024-02-02T03:12:25.760Z,91897.81
2024-02-02T03:14:52.496Z,91902.50
2024-02-02T03:17:19.346Z,91897.31
2024-02-02T03:19:46.171Z,91906.44
2024-02-02T03:22:12.941Z,91905.91
2024-02-02T03:24:39.792Z,91896.13
2024-02-02T03:27:06.545Z,91893.13
2024-02-02T03:29:33.711Z,91903.81
2024-02-02T03:32:00.612Z,91903.97
2024-02-02T03:34:27.607Z,91903.78
2024-02-02T03:36:54.437Z,91916.53
2024-02-02T03:39:21.555Z,91912.28
2024-02-02T03:41:48.238Z,91910.56
2024-02-02T03:44:15.062Z,91918.72
2024-02-02T03:46:41.782Z,91916.59
2024-02-02T03:49:08.829Z,91914.38
2024-02-02T03:51:35.667Z,91916.72
2024-02-02T03:54:02.555Z,91920.38
2024-02-02T03:56:29.418Z,91915.78
2024-02-02T03:58:56.130Z,91914.09
2024-02-02T04:01:22.955Z,91908.69
2024-02-02T04:03:49.739Z,91924.34
2024-02-02T04:06:16.548Z,91916.56
2024-02-02T04:08:44.284Z,91925.13
2024-02-02T04:11:11.334Z,91916.84
2024-02-02T04:13:38.045Z,91917.81
2024-02-02T04:16:05.256Z,91921.22
2024-02-02T04:18:32.193Z,91925.03
2024-02-02T04:20:58.993Z,91926.31
2024-02-02T04:23:26.263Z,91917.78
2024-02-02T04:25:52.964Z,91921.91
2024-02-02T04:28:19.751Z,91910.66
2024-02-02T04:30:46.457Z,91919.06
2024-02-02T04:33:14.281Z,91916.63
2024-02-02T04:35:41.208Z,91915.13
2024-02-02T04:38:07.926Z,91926.19
2024-02-02T04:40:34.616Z,91925.81
2024-02-02T04:43:01.518Z,91927.66
2024-02-02T04:45:29.321Z,91925.56
2024-02-02T04:47:56.325Z,91921.31
2024-02-02T04:50:23.393Z,91924.50
2024-02-02T04:52:50.257Z,91928.00
2024-02-02T04:55:16.931Z,91942.41
2024-02-02T04:57:43.734Z,91951.63
2024-02-02T05:00:11.267Z,91959.75
2024-02-02T05:02:38.556Z,91962.81
2024-02-02T05:05:06.668Z,91965.78
2024-02-02T05:07:34.106Z,91973.69
2024-02-02T05:10:00.871Z,91979.88
2024-02-02T05:12:28.544Z,91966.72
2024-02-02T05:14:55.503Z,91972.72
2024-02-02T05:17:22.717Z,91984.19
2024-02-02T05:19:49.435Z,91990.31
2024-02-02T05:22:16.202Z,91991.91
2024-02-02T05:24:45.668Z,91995.88
2024-02-02T05:27:13.879Z,91993.50
2024-02-02T05:29:41.059Z,91989.53
2024-02-02T05:32:07.950Z,91988.97
2024-02-02T05:34:34.915Z,91996.09
2024-02-02T05:37:02.233Z,91993.78
2024-02-02T05:39:29.571Z,91992.28
2024-02-02T05:41:58.494Z,92001.31
2024-02-02T05:44:25.302Z,92001.28
2024-02-02T05:46:52.078Z,92009.31
2024-02-02T05:49:19.015Z,92009.25
2024-02-02T05:51:45.796Z,92018.63
2024-02-02T05:54:12.568Z,92017.63
2024-02-02T05:56:39.371Z,92015.25
2024-02-02T05:59:06.074Z,92019.44
2024-02-02T06:01:32.902Z,92023.81
2024-02-02T06:04:00.505Z,92022.88
2024-02-02T06:06:27.828Z,92025.25
2024-02-02T06:08:57.011Z,92034.03
2024-02-02T06:11:25.575Z,92040.38
2024-02-02T06:13:56.243Z,92033.31
2024-02-02T06:16:27.060Z,92043.19
2024-02-02T06:18:54.106Z,92041.06
2024-02-02T06:21:21.241Z,92046.50
2024-02-02T06:23:47.899Z,92051.75
2024-02-02T06:26:14.666Z,92043.69
2024-02-02T06:28:41.606Z,92048.72
2024-02-02T06:31:08.357Z,92043.00
2024-02-02T06:33:35.242Z,92049.47
2024-02-02T06:36:02.194Z,92053.63
2024-02-02T06:38:29.039Z,92066.97
2024-02-02T06:40:55.928Z,92069.16
2024-02-02T06:43:22.728Z,92068.94
2024-02-02T06:45:49.864Z,92062.63
2024-02-02T06:48:17.273Z,92069.06
2024-02-02T06:50:45.814Z,92082.25
2024-02-02T06:53:12.991Z,92075.06
2024-02-02T06:55:39.819Z,92077.91
2024-02-02T06:58:07.248Z,92077.91
2024-02-02T07:00:34.083Z,92076.31
2024-02-02T07:03:00.880Z,92081.63
2024-02-02T07:05:28.301Z,92080.78
2024-02-02T07:07:55.042Z,92076.63
2024-02-02T07:10:21.918Z,92088.19
2024-02-02T07:12:59.091Z,92103.69
2024-02-02T07:15:28.805Z,92094.13
2024-02-02T07:17:55.886Z,92092.66
2024-02-02T07:20:27.032Z,92088.00
2024-02-02T07:23:02.348Z,92091.13
2024-02-02T07:25:29.395Z,92101.69
2024-02-02T07:27:57.281Z,92090.53
2024-02-02T07:30:27.349Z,92094.91
2024-02-02T07:32:54.324Z,92091.13
2024-02-02T07:35:34.801Z,92107.06
2024-02-02T07:38:05.432Z,92109.84
2024-02-02T07:40:32.207Z,92102.78
2024-02-02T07:42:59.257Z,92101.66
2024-02-02T07:45:26.300Z,92097.97
2024-02-02T07:47:53.461Z,92114.06
2024-02-02T07:50:20.418Z,92112.03
2024-02-02T07:52:47.273Z,92111.41
2024-02-02T07:55:14.181Z,92111.78
2024-02-02T07:57:40.969Z,92106.69
2024-02-02T08:00:08.874Z,92102.13
2024-02-02T08:02:35.673Z,92107.22
2024-02-02T08:05:09.069Z,92101.78
2024-02-02T08:07:36.105Z,92101.00
2024-02-02T08:10:02.889Z,92099.09
2024-02-02T08:12:30.778Z,92098.44
2024-02-02T08:14:58.297Z,92106.47
2024-02-02T08:17:25.210Z,92110.19
2024-02-02T08:19:52.134Z,92109.94
2024-02-02T08:22:19.034Z,92113.13
2024-02-02T08:24:46.297Z,92116.34
2024-02-02T08:27:13.259Z,92126.09
2024-02-02T08:29:40.149Z,92125.50
2024-02-02T08:32:07.221Z,92122.81
2024-02-02T08:34:34.256Z,92118.09
2024-02-02T08:37:03.094Z,92115.78
2024-02-02T08:39:35.727Z,92114.69
2024-02-02T08:42:03.965Z,92120.97
2024-02-02T08:44:34.730Z,92113.28
2024-02-02T08:47:01.563Z,92118.44
2024-02-02T08:49:40.726Z,92122.47
2024-02-02T08:52:12.586Z,92107.31
2024-02-02T08:54:45.922Z,92119.72
2024-02-02T08:57:51.457Z,92115.56
2024-02-02T09:00:31.367Z,92116.88
2024-02-02T09:03:25.314Z,92116.88
2024-02-02T09:05:58.838Z,92130.53
2024-02-02T09:08:35.417Z,92118.28
2024-02-02T09:11:04.076Z,92122.94
2024-02-02T09:13:31.289Z,92128.97
2024-02-02T09:15:58.173Z,92127.88
2024-02-02T09:18:47.313Z,92129.34
2024-02-02T09:21:15.910Z,92124.25
2024-02-02T09:23:50.173Z,92131.28
2024-02-02T09:26:17.804Z,92122.63
2024-02-02T09:28:44.906Z,92122.53
2024-02-02T09:31:22.034Z,92116.81
2024-02-02T09:33:52.270Z,92123.47
2024-02-02T09:36:21.976Z,92127.03
2024-02-02T09:38:59.221Z,92125.91
2024-02-02T09:41:34.750Z,92124.53
2024-02-02T09:44:44.436Z,92107.06
2024-02-02T09:47:37.921Z,92115.56
2024-02-02T09:50:28.376Z,92107.19
2024-02-02T09:53:30.330Z,92105.50
2024-02-02T09:56:11.043Z,92106.88
2024-02-02T09:58:46.437Z,92107.50
2024-02-02T10:01:24.298Z,92105.28
2024-02-02T10:03:51.123Z,92105.34
2024-02-02T10:06:42.036Z,92108.63
2024-02-02T10:09:40.867Z,92106.13
2024-02-02T10:12:15.908Z,92109.13
2024-02-02T10:15:05.003Z,92102.84
2024-02-02T10:17:41.058Z,92104.97
2024-02-02T10:20:32.592Z,92103.00
2024-02-02T10:23:18.344Z,92109.84
2024-02-02T10:26:06.506Z,92105.50
2024-02-02T10:28:37.056Z,92110.06
2024-02-02T10:31:20.162Z,92101.38
2024-02-02T10:34:09.114Z,92104.75
2024-02-02T10:36:59.037Z,92100.09
2024-02-02T10:39:57.312Z,92094.91
2024-02-02T10:42:58.086Z,92102.75
2024-02-02T10:45:43.352Z,92111.66
2024-02-02T10:48:35.917Z,92123.00
2024-02-02T10:51:29.230Z,92110.53
2024-02-02T10:54:23.593Z,92116.13
2024-02-02T10:57:28.171Z,92113.59
2024-02-02T11:00:11.689Z,92115.38
2024-02-02T11:03:17.488Z,92108.38
2024-02-02T11:06:21.129Z,92107.84
2024-02-02T11:08:57.589Z,92108.94
2024-02-02T11:11:26.395Z,92116.00
2024-02-02T11:13:59.263Z,92126.97
2024-02-02T11:16:53.860Z,92128.00
2024-02-02T11:19:25.127Z,92115.25
2024-02-02T11:22:26.875Z,92126.41
2024-02-02T11:25:04.415Z,92122.75
2024-02-02T11:27:40.498Z,92124.31
2024-02-02T11:30:08.291Z,92118.84
2024-02-02T11:32:57.834Z,92120.50
2024-02-02T11:35:46.472Z,92123.91
2024-02-02T11:38:46.358Z,92128.72
2024-02-02T11:41:16.833Z,92126.25
2024-02-02T11:43:44.726Z,92116.31
2024-02-02T11:46:12.106Z,92113.09
2024-02-02T11:48:43.159Z,92117.13
2024-02-02T11:51:10.779Z,92112.97
2024-02-02T11:53:50.206Z,92111.59
2024-02-02T11:56:25.754Z,92100.44
2024-02-02T11:59:11.274Z,92102.38
2024-02-02T12:02:14.799Z,92113.47
2024-02-02T12:04:57.906Z,92102.78
2024-02-02T12:07:36.883Z,92109.34
2024-02-02T12:10:09.416Z,92112.53
2024-02-02T12:12:41.716Z,92112.06
2024-02-02T12:15:11.070Z,92106.31
2024-02-02T12:17:38.155Z,92101.34
2024-02-02T12:20:08.659Z,92102.16
2024-02-02T12:22:36.046Z,92099.47
2024-02-02T12:25:05.653Z,92102.06
2024-02-02T12:27:33.108Z,92109.41
2024-02-02T12:30:00.356Z,92096.44
2024-02-02T12:32:27.382Z,92095.69
2024-02-02T12:34:54.426Z,92097.00
2024-02-02T12:37:21.415Z,92091.09
2024-02-02T12:39:51.036Z,92097.25
2024-02-02T12:42:18.357Z,92101.03
2024-02-02T12:44:45.290Z,92104.78
2024-02-02T12:47:12.112Z,92112.09
2024-02-02T12:49:39.071Z,92111.63
2024-02-02T12:52:07.672Z,92112.50
2024-02-02T12:54:34.892Z,92115.53
2024-02-02T12:57:01.907Z,92111.84
2024-02-02T12:59:30.438Z,92117.97
2024-02-02T13:01:57.223Z,92111.47
2024-02-02T13:04:24.473Z,92108.81
2024-02-02T13:06:51.736Z,92117.69
2024-02-02T13:09:30.700Z,92111.91
2024-02-02T13:12:01.992Z,92096.16
2024-02-02T13:14:35.051Z,92098.88
2024-02-02T13:17:13.448Z,92104.06
2024-02-02T13:19:46.856Z,92102.66
2024-02-02T13:22:30.386Z,92111.97
2024-02-02T13:24:58.330Z,92116.34
2024-02-02T13:27:30.793Z,92113.03
2024-02-02T13:30:03.264Z,92116.13
2024-02-02T13:32:34.920Z,92117.81
2024-02-02T13:35:02.217Z,92125.09
2024-02-02T13:37:37.972Z,92116.47
2024-02-02T13:40:10.743Z,92122.47
2024-02-02T13:42:38.306Z,92123.28
2024-02-02T13:45:10.547Z,92121.09
2024-02-02T13:47:38.521Z,92126.47
2024-02-02T13:50:13.508Z,92125.09
2024-02-02T13:52:40.486Z,92128.63
2024-02-02T13:55:07.665Z,92122.56
2024-02-02T13:57:34.556Z,92129.97
2024-02-02T14:00:01.449Z,92127.97
2024-02-02T14:02:28.319Z,92137.25
2024-02-02T14:04:57.642Z,92141.84
2024-02-02T14:07:24.502Z,92141.13
2024-02-02T14:10:10.138Z,92147.59
2024-02-02T14:12:38.015Z,92145.41
2024-02-02T14:15:06.607Z,92145.38
2024-02-02T14:17:33.958Z,92146.66
2024-02-02T14:20:05.335Z,92148.16
2024-02-02T14:22:33.784Z,92158.22
2024-02-02T14:25:00.611Z,92158.88
2024-02-02T14:27:38.742Z,92163.56
2024-02-02T14:30:09.445Z,92161.41
2024-02-02T14:32:36.990Z,92156.09
2024-02-02T14:35:05.353Z,92164.59
2024-02-02T14:37:33.842Z,92166.47
2024-02-02T14:40:01.723Z,92170.38
2024-02-02T14:42:31.393Z,92166.94
2024-02-02T14:45:00.004Z,92169.41
2024-02-02T14:47:27.893Z,92175.22
2024-02-02T14:49:54.942Z,92176.09
2024-02-02T14:52:22.474Z,92181.16
2024-02-02T14:54:49.373Z,92177.34
2024-02-02T14:57:18.964Z,92183.94
2024-02-02T14:59:51.336Z,92184.59
2024-02-02T15:02:19.209Z,92191.78
2024-02-02T15:04:46.176Z,92195.28
2024-02-02T15:07:13.235Z,92190.00
2024-02-02T15:09:40.680Z,92201.91
2024-02-02T15:12:07.851Z,92198.72
2024-02-02T15:14:36.166Z,92204.75
2024-02-02T15:17:03.742Z,92201.44
2024-02-02T15:19:30.608Z,92214.69
2024-02-02T15:21:57.440Z,92215.84
2024-02-02T15:24:24.255Z,92217.75
2024-02-02T15:26:51.158Z,92219.53
2024-02-02T15:29:18.054Z,92224.56
2024-02-02T15:31:44.850Z,92215.44
2024-02-02T15:34:11.756Z,92221.44
2024-02-02T15:36:38.677Z,92219.88
2024-02-02T15:39:18.815Z,92224.91
2024-02-02T15:41:53.542Z,92222.72
2024-02-02T15:44:20.476Z,92215.97
2024-02-02T15:46:47.370Z,92219.41
2024-02-02T15:49:14.444Z,92227.25
2024-02-02T15:51:41.694Z,92225.84
2024-02-02T15:54:10.353Z,92216.75
2024-02-02T15:56:37.485Z,92226.63
2024-02-02T15:59:04.651Z,92223.63
2024-02-02T16:01:31.724Z,92226.00
2024-02-02T16:03:59.375Z,92224.75
2024-02-02T16:06:26.263Z,92231.34
2024-02-02T16:08:53.076Z,92241.88
2024-02-02T16:11:20.589Z,92242.13
2024-02-02T16:13:47.523Z,92238.88
2024-02-02T16:16:14.485Z,92240.06
2024-02-02T16:18:41.522Z,92235.91
2024-02-02T16:21:08.594Z,92239.66
2024-02-02T16:23:35.415Z,92246.56
2024-02-02T16:26:02.540Z,92240.28
2024-02-02T16:28:29.686Z,92242.34
2024-02-02T16:30:56.498Z,92243.22
2024-02-02T16:33:24.126Z,92237.13
2024-02-02T16:35:51.277Z,92244.75
2024-02-02T16:38:18.609Z,92241.47
2024-02-02T16:40:45.520Z,92241.94
2024-02-02T16:43:12.454Z,92249.22
2024-02-02T16:45:41.444Z,92257.66
2024-02-02T16:48:09.694Z,92245.13
2024-02-02T16:50:38.225Z,92263.66
2024-02-02T16:53:06.889Z,92265.03
2024-02-02T16:55:33.736Z,92272.81
2024-02-02T16:58:00.929Z,92271.72
2024-02-02T17:00:27.760Z,92271.78
2024-02-02T17:02:54.871Z,92269.25
2024-02-02T17:05:21.687Z,92271.22
2024-02-02T17:07:48.971Z,92279.25
2024-02-02T17:10:15.848Z,92271.72
2024-02-02T17:12:43.640Z,92264.63
2024-02-02T17:15:10.714Z,92273.34
2024-02-02T17:17:40.583Z,92272.19
2024-02-02T17:20:09.641Z,92272.34
2024-02-02T17:22:38.024Z,92279.63
2024-02-02T17:25:06.493Z,92277.13
2024-02-02T17:27:33.358Z,92271.34
2024-02-02T17:30:00.258Z,92280.66
2024-02-02T17:32:27.119Z,92274.53
2024-02-02T17:34:54.184Z,92275.44
2024-02-02T17:37:21.130Z,92267.16
2024-02-02T17:39:48.977Z,92272.72
2024-02-02T17:42:15.833Z,92268.00
2024-02-02T17:44:42.663Z,92271.84
2024-02-02T17:47:09.531Z,92264.47
2024-02-02T17:49:45.446Z,92266.13
2024-02-02T17:52:16.349Z,92267.31
2024-02-02T17:54:43.246Z,92272.75
2024-02-02T17:57:10.209Z,92265.53
2024-02-02T17:59:37.083Z,92272.06
2024-02-02T18:02:04.136Z,92268.03
2024-02-02T18:04:31.056Z,92272.19
2024-02-02T18:06:57.949Z,92275.84
2024-02-02T18:09:24.903Z,92272.25
2024-02-02T18:11:51.758Z,92274.03
2024-02-02T18:14:23.988Z,92270.97
2024-02-02T18:16:51.323Z,92265.25
2024-02-02T18:19:18.341Z,92264.63
2024-02-02T18:21:45.296Z,92261.78
2024-02-02T18:24:12.272Z,92272.38
2024-02-02T18:26:39.395Z,92265.47
2024-02-02T18:29:06.218Z,92268.50
2024-02-02T18:31:33.022Z,92266.88
2024-02-02T18:33:59.937Z,92269.09
2024-02-02T18:36:26.831Z,92268.03
2024-02-02T18:38:53.626Z,92263.44
2024-02-02T18:41:20.560Z,92266.41
2024-02-02T18:43:47.257Z,92270.06
2024-02-02T18:46:14.134Z,92267.56
2024-02-02T18:48:41.270Z,92264.50
2024-02-02T18:51:16.155Z,92270.09
2024-02-02T18:53:42.924Z,92277.03
2024-02-02T18:56:10.260Z,92273.00
2024-02-02T18:58:42.488Z,92274.03
2024-02-02T19:01:21.955Z,92267.81
2024-02-02T19:03:48.817Z,92263.91
2024-02-02T19:06:19.131Z,92272.09
2024-02-02T19:08:46.123Z,92273.25
2024-02-02T19:11:14.110Z,92277.78
2024-02-02T19:13:40.997Z,92279.97
2024-02-02T19:16:20.511Z,92286.72
2024-02-02T19:18:47.970Z,92280.09
2024-02-02T19:21:28.069Z,92280.28
2024-02-02T19:23:55.602Z,92279.34
2024-02-02T19:26:25.637Z,92280.28
2024-02-02T19:28:53.220Z,92283.50
2024-02-02T19:31:24.289Z,92290.63
2024-02-02T19:33:51.606Z,92288.59
2024-02-02T19:36:28.820Z,92290.31
2024-02-02T19:38:56.546Z,92286.94
2024-02-02T19:41:24.627Z,92284.91
2024-02-02T19:43:51.886Z,92295.13
2024-02-02T19:46:28.257Z,92292.41
2024-02-02T19:48:55.974Z,92289.22
2024-02-02T19:51:24.643Z,92290.03
2024-02-02T19:53:51.491Z,92290.03
2024-02-02T19:56:19.432Z,92299.69
2024-02-02T19:58:46.339Z,92306.00
2024-02-02T20:01:22.960Z,92297.03
2024-02-02T20:03:50.838Z,92304.97
2024-02-02T20:06:18.811Z,92303.69
2024-02-02T20:08:46.494Z,92304.91
2024-02-02T20:11:13.979Z,92305.16
2024-02-02T20:13:41.374Z,92288.28
2024-02-02T20:16:09.471Z,92292.59
2024-02-02T20:18:37.220Z,92305.28
2024-02-02T20:21:04.428Z,92304.06
2024-02-02T20:23:31.672Z,92306.00
2024-02-02T20:25:58.871Z,92303.19
2024-02-02T20:28:25.790Z,92296.06
2024-02-02T20:30:52.723Z,92294.00
2024-02-02T20:33:19.782Z,92296.03
2024-02-02T20:35:46.652Z,92287.66
2024-02-02T20:38:13.596Z,92285.56
2024-02-02T20:40:40.405Z,92304.59
2024-02-02T20:43:07.256Z,92296.56
2024-02-02T20:45:34.115Z,92302.84
2024-02-02T20:48:01.937Z,92291.56
2024-02-02T20:50:28.852Z,92304.78
2024-02-02T20:52:55.721Z,92297.53
2024-02-02T20:55:22.673Z,92304.50
2024-02-02T20:57:49.678Z,92293.69
2024-02-02T21:00:18.509Z,92297.84
2024-02-02T21:02:45.543Z,92288.31
2024-02-02T21:05:12.663Z,92293.13
2024-02-02T21:07:39.584Z,92294.06
2024-02-02T21:10:07.643Z,92296.75
2024-02-02T21:12:34.927Z,92292.59
2024-02-02T21:15:01.956Z,92297.28
2024-02-02T21:17:29.768Z,92295.38
2024-02-02T21:19:58.293Z,92288.13
2024-02-02T21:22:25.678Z,92291.03
2024-02-02T21:24:52.586Z,92292.75
2024-02-02T21:27:19.463Z,92288.97
2024-02-02T21:29:46.224Z,92284.75
2024-02-02T21:32:13.045Z,92284.97
2024-02-02T21:34:40.057Z,92283.81
2024-02-02T21:37:06.938Z,92289.88
2024-02-02T21:39:33.848Z,92290.13
2024-02-02T21:42:00.603Z,92273.94
2024-02-02T21:44:27.478Z,92273.47
2024-02-02T21:46:54.290Z,92280.38
2024-02-02T21:49:21.335Z,92277.31
2024-02-02T21:51:48.191Z,92277.78
2024-02-02T21:54:15.219Z,92272.34
2024-02-02T21:56:42.967Z,92268.47
2024-02-02T21:59:10.113Z,92275.53
2024-02-02T22:01:37.793Z,92275.38
2024-02-02T22:04:05.080Z,92268.06
2024-02-02T22:06:32.314Z,92270.06
2024-02-02T22:09:00.457Z,92275.94
2024-02-02T22:11:27.436Z,92272.88
2024-02-02T22:13:54.237Z,92267.22
2024-02-02T22:16:21.023Z,92256.88
2024-02-02T22:18:50.035Z,92262.22
2024-02-02T22:21:22.814Z,92265.47
2024-02-02T22:23:49.632Z,92260.03
2024-02-02T22:26:22.538Z,92261.50
2024-02-02T22:28:49.338Z,92259.19
2024-02-02T22:31:22.396Z,92250.97
2024-02-02T22:33:49.857Z,92251.22
2024-02-02T22:36:21.659Z,92252.41
2024-02-02T22:38:49.604Z,92247.47
2024-02-02T22:41:32.337Z,92247.94
2024-02-02T22:44:01.089Z,92245.59
2024-02-02T22:46:30.651Z,92248.00
2024-02-02T22:48:57.650Z,92237.88
2024-02-02T22:51:24.748Z,92238.78
2024-02-02T22:53:51.567Z,92235.16
2024-02-02T22:56:18.384Z,92235.84
2024-02-02T22:58:45.215Z,92239.03
2024-02-02T23:01:12.245Z,92225.59
2024-02-02T23:03:39.315Z,92226.53
2024-02-02T23:06:06.827Z,92230.56
2024-02-02T23:08:33.658Z,92235.25
2024-02-02T23:11:00.574Z,92230.44
2024-02-02T23:13:27.411Z,92213.25
2024-02-02T23:15:54.990Z,92217.81
2024-02-02T23:18:22.777Z,92215.16
2024-02-02T23:20:49.998Z,92220.81
2024-02-02T23:23:20.235Z,92213.84
2024-02-02T23:25:47.054Z,92207.00
2024-02-02T23:28:14.047Z,92210.59
2024-02-02T23:30:41.230Z,92208.13
2024-02-02T23:33:08.374Z,92220.81
2024-02-02T23:35:35.572Z,92213.78
2024-02-02T23:38:02.413Z,92206.13
2024-02-02T23:40:30.068Z,92203.44
2024-02-02T23:42:56.948Z,92213.88
2024-02-02T23:45:23.839Z,92203.78
2024-02-02T23:47:50.629Z,92208.97
2024-02-02T23:50:17.870Z,92212.09
2024-02-02T23:52:44.743Z,92217.31
2024-02-02T23:55:11.784Z,92209.47
2024-02-02T23:57:38.601Z,92202.75
